createdAt,value
2022-10-15T00:01:50.410Z,8.10
2022-10-15T00:04:19.177Z,8.10
2022-10-15T00:06:47.930Z,8.00
2022-10-15T00:09:16.650Z,8.10
2022-10-15T00:11:45.279Z,8.00
2022-10-15T00:14:15.815Z,8.00
2022-10-15T00:16:44.541Z,8.00
2022-10-15T00:19:13.295Z,7.90
2022-10-15T00:21:41.954Z,7.90
2022-10-15T00:24:10.667Z,7.90
2022-10-15T00:26:39.295Z,7.90
2022-10-15T00:29:08.458Z,7.90
2022-10-15T00:31:38.627Z,7.90
2022-10-15T00:34:07.339Z,7.90
2022-10-15T00:36:37.891Z,7.90
2022-10-15T00:39:08.216Z,7.90
2022-10-15T00:41:39.443Z,7.90
2022-10-15T00:44:41.347Z,7.90
2022-10-15T00:47:16.927Z,7.90
2022-10-15T00:49:49.618Z,7.90
2022-10-15T00:52:21.711Z,7.90
2022-10-15T00:54:54.342Z,7.90
2022-10-15T00:57:23.233Z,7.90
2022-10-15T00:59:55.623Z,8.00
2022-10-15T01:02:26.009Z,7.90
2022-10-15T01:04:55.485Z,7.90
2022-10-15T01:07:24.233Z,7.90
2022-10-15T01:09:53.170Z,7.90
2022-10-15T01:12:35.010Z,7.80
2022-10-15T01:15:10.395Z,7.80
2022-10-15T01:17:47.020Z,7.80
2022-10-15T01:20:56.838Z,7.80
2022-10-15T01:23:59.363Z,7.80
2022-10-15T01:26:47.644Z,7.80
2022-10-15T01:29:24.085Z,7.80
2022-10-15T01:32:02.819Z,7.80
2022-10-15T01:34:38.009Z,7.80
2022-10-15T01:37:11.458Z,7.90
2022-10-15T01:39:43.751Z,8.00
2022-10-15T01:42:18.868Z,8.00
2022-10-15T01:44:52.585Z,8.10
2022-10-15T01:47:29.414Z,8.10
2022-10-15T01:49:59.492Z,8.10
2022-10-15T01:52:32.571Z,8.20
2022-10-15T01:55:02.991Z,8.30
2022-10-15T01:57:34.074Z,8.30
2022-10-15T02:00:04.236Z,8.40
2022-10-15T02:02:34.313Z,8.50
2022-10-15T02:05:06.795Z,8.60
2022-10-15T02:07:45.149Z,8.60
2022-10-15T02:10:20.643Z,8.60
2022-10-15T02:13:04.796Z,8.70
2022-10-15T02:15:43.441Z,8.60
2022-10-15T02:18:20.843Z,8.70
2022-10-15T02:20:57.020Z,8.70
2022-10-15T02:23:36.404Z,8.80
2022-10-15T02:26:08.662Z,8.80
2022-10-15T02:28:42.975Z,8.80
2022-10-15T02:31:14.171Z,8.90
2022-10-15T02:33:45.233Z,8.90
2022-10-15T02:36:14.610Z,8.90
2022-10-15T02:38:45.861Z,8.90
2022-10-15T02:41:14.828Z,8.90
2022-10-15T02:43:43.789Z,9.00
2022-10-15T02:46:16.055Z,9.00
2022-10-15T02:48:46.207Z,8.90
2022-10-15T02:51:14.920Z,9.00
2022-10-15T02:53:43.559Z,9.00
2022-10-15T02:56:12.329Z,9.00
2022-10-15T02:58:41.031Z,8.90
2022-10-15T03:01:09.750Z,8.90
2022-10-15T03:03:38.505Z,9.00
2022-10-15T03:06:09.168Z,8.90
2022-10-15T03:08:37.856Z,8.90
2022-10-15T03:11:06.547Z,8.90
2022-10-15T03:13:38.059Z,8.90
2022-10-15T03:16:07.332Z,8.90
2022-10-15T03:18:39.723Z,8.90
2022-10-15T03:21:11.272Z,8.90
2022-10-15T03:23:40.549Z,8.90
2022-10-15T03:26:09.589Z,8.90
2022-10-15T03:28:38.416Z,9.00
2022-10-15T03:31:07.301Z,9.00
2022-10-15T03:33:35.912Z,9.00
2022-10-15T03:36:04.554Z,9.00
2022-10-15T03:38:34.693Z,9.00
2022-10-15T03:41:03.486Z,9.00
2022-10-15T03:43:32.118Z,9.00
2022-10-15T03:46:03.747Z,9.00
2022-10-15T03:48:32.674Z,9.00
2022-10-15T03:51:01.370Z,9.00
2022-10-15T03:53:30.775Z,9.00
2022-10-15T03:56:06.283Z,9.00
2022-10-15T03:58:35.034Z,9.00
2022-10-15T04:01:03.820Z,9.00
2022-10-15T04:03:32.715Z,9.00
2022-10-15T04:06:03.410Z,9.00
2022-10-15T04:08:32.150Z,8.90
2022-10-15T04:11:00.828Z,8.90
2022-10-15T04:13:31.105Z,8.90
2022-10-15T04:15:59.755Z,8.90
2022-10-15T04:18:28.488Z,8.90
2022-10-15T04:21:00.762Z,8.90
2022-10-15T04:23:29.785Z,8.90
2022-10-15T04:26:01.482Z,8.90
2022-10-15T04:28:31.597Z,8.90
2022-10-15T04:31:26.274Z,8.90
2022-10-15T04:33:54.998Z,8.80
2022-10-15T04:36:23.770Z,8.90
2022-10-15T04:38:52.483Z,8.90
2022-10-15T04:41:21.165Z,8.90
2022-10-15T04:43:51.241Z,8.80
2022-10-15T04:46:22.526Z,8.80
2022-10-15T04:48:52.889Z,8.80
2022-10-15T04:51:23.032Z,8.70
2022-10-15T04:53:51.891Z,8.70
2022-10-15T04:56:22.891Z,8.70
2022-10-15T04:58:53.142Z,8.60
2022-10-15T05:01:22.577Z,8.60
2022-10-15T05:03:51.482Z,8.60
2022-10-15T05:06:21.759Z,8.60
2022-10-15T05:08:51.414Z,8.60
2022-10-15T05:11:21.737Z,8.70
2022-10-15T05:13:50.830Z,8.70
2022-10-15T05:16:22.541Z,8.70
2022-10-15T05:18:53.771Z,8.70
2022-10-15T05:21:22.736Z,8.80
2022-10-15T05:23:52.013Z,8.90
2022-10-15T05:26:23.309Z,8.90
2022-10-15T05:28:52.845Z,9.00
2022-10-15T05:31:24.811Z,9.10
2022-10-15T05:33:54.999Z,9.10
2022-10-15T05:36:26.055Z,9.10
2022-10-15T05:38:56.038Z,9.10
2022-10-15T05:41:25.955Z,9.10
2022-10-15T05:43:56.851Z,9.00
2022-10-15T05:46:28.108Z,9.00
2022-10-15T05:48:58.387Z,9.00
2022-10-15T05:51:28.677Z,8.90
2022-10-15T05:53:58.226Z,8.90
2022-10-15T05:56:27.644Z,8.90
2022-10-15T05:58:56.685Z,9.00
2022-10-15T06:01:26.900Z,9.00
2022-10-15T06:03:56.108Z,9.00
2022-10-15T06:06:26.525Z,9.00
2022-10-15T06:08:55.865Z,9.10
2022-10-15T06:11:24.520Z,9.10
2022-10-15T06:13:53.124Z,9.10
2022-10-15T06:16:24.041Z,9.10
2022-10-15T06:18:54.974Z,9.10
2022-10-15T06:21:23.608Z,9.20
2022-10-15T06:23:52.441Z,9.20
2022-10-15T06:26:21.127Z,9.20
2022-10-15T06:28:49.908Z,9.30
2022-10-15T06:31:18.613Z,9.40
2022-10-15T06:33:47.315Z,9.50
2022-10-15T06:36:17.651Z,9.60
2022-10-15T06:38:48.265Z,9.60
2022-10-15T06:41:17.256Z,9.70
2022-10-15T06:43:46.518Z,9.80
2022-10-15T06:46:15.194Z,10.00
2022-10-15T06:48:43.919Z,10.10
2022-10-15T06:51:14.096Z,10.20
2022-10-15T06:53:44.221Z,10.30
2022-10-15T06:56:12.946Z,10.40
2022-10-15T06:58:44.121Z,10.40
2022-10-15T07:01:13.146Z,10.60
2022-10-15T07:03:42.040Z,10.70
2022-10-15T07:06:11.438Z,10.80
2022-10-15T07:08:40.031Z,10.80
2022-10-15T07:11:11.002Z,10.80
2022-10-15T07:13:40.277Z,10.80
2022-10-15T07:16:10.888Z,10.90
2022-10-15T07:18:40.705Z,11.00
2022-10-15T07:23:40.296Z,11.10
2022-10-15T07:26:10.373Z,11.20
2022-10-15T07:28:39.188Z,11.20
2022-10-15T07:31:09.115Z,11.30
2022-10-15T07:33:38.112Z,11.40
2022-10-15T07:36:08.700Z,11.40
2022-10-15T07:38:38.049Z,11.60
2022-10-15T07:41:07.387Z,11.60
2022-10-15T07:43:38.615Z,11.70
2022-10-15T07:46:07.586Z,11.70
2022-10-15T07:48:36.262Z,11.80
2022-10-15T07:51:07.195Z,11.90
2022-10-15T07:53:36.003Z,12.00
2022-10-15T07:56:08.068Z,12.00
2022-10-15T07:58:39.166Z,12.20
2022-10-15T08:01:09.307Z,12.40
2022-10-15T08:03:38.584Z,12.70
2022-10-15T08:06:09.281Z,13.00
2022-10-15T08:08:38.925Z,13.30
2022-10-15T08:11:08.690Z,13.50
2022-10-15T08:13:41.524Z,13.70
2022-10-15T08:16:11.349Z,13.80
2022-10-15T08:18:40.385Z,13.90
2022-10-15T08:21:09.846Z,14.00
2022-10-15T08:23:38.595Z,14.10
2022-10-15T08:26:07.658Z,14.20
2022-10-15T08:28:39.049Z,14.20
2022-10-15T08:31:08.468Z,14.10
2022-10-15T08:33:38.539Z,14.20
2022-10-15T08:36:07.698Z,14.10
2022-10-15T08:38:37.603Z,14.10
2022-10-15T08:41:15.756Z,14.20
2022-10-15T08:43:49.335Z,14.30
2022-10-15T08:46:22.454Z,14.50
2022-10-15T08:48:55.312Z,14.70
2022-10-15T08:51:27.118Z,14.80
2022-10-15T08:53:59.212Z,14.70
2022-10-15T08:56:32.927Z,14.70
2022-10-15T08:59:11.895Z,14.70
2022-10-15T09:01:49.776Z,14.70
2022-10-15T09:07:06.884Z,14.60
2022-10-15T09:09:43.428Z,14.50
2022-10-15T09:12:37.859Z,14.40
2022-10-15T09:15:17.199Z,14.40
2022-10-15T09:17:48.710Z,14.50
2022-10-15T09:20:19.760Z,14.60
2022-10-15T09:22:52.377Z,14.60
2022-10-15T09:25:26.433Z,14.60
2022-10-15T09:28:00.567Z,14.60
2022-10-15T09:30:36.060Z,14.60
2022-10-15T09:33:09.845Z,14.70
2022-10-15T09:35:46.527Z,14.70
2022-10-15T09:38:30.080Z,14.80
2022-10-15T09:41:16.651Z,14.90
2022-10-15T09:43:49.613Z,15.20
2022-10-15T09:46:19.687Z,15.40
2022-10-15T09:48:54.025Z,15.50
2022-10-15T09:51:28.845Z,15.70
2022-10-15T09:54:03.935Z,15.80
2022-10-15T09:56:38.275Z,15.90
2022-10-15T09:59:09.731Z,16.10
2022-10-15T10:01:40.481Z,16.20
2022-10-15T10:04:15.524Z,16.20
2022-10-15T10:06:51.285Z,16.40
2022-10-15T10:09:22.737Z,16.50
2022-10-15T10:11:55.091Z,16.60
2022-10-15T10:14:30.420Z,16.60
2022-10-15T10:17:21.344Z,16.80
2022-10-15T10:20:17.220Z,17.10
2022-10-15T10:22:51.247Z,17.40
2022-10-15T10:25:35.819Z,17.50
2022-10-15T10:28:17.693Z,17.60
2022-10-15T10:30:54.613Z,17.70
2022-10-15T10:33:28.657Z,17.70
2022-10-15T10:35:58.234Z,17.80
2022-10-15T10:38:30.515Z,17.90
2022-10-15T10:41:05.575Z,18.10
2022-10-15T10:43:39.106Z,18.10
2022-10-15T10:46:19.865Z,18.00
2022-10-15T10:48:51.972Z,17.90
2022-10-15T10:51:22.845Z,17.70
2022-10-15T10:53:55.220Z,17.50
2022-10-15T10:56:26.178Z,17.40
2022-10-15T10:59:03.084Z,17.30
2022-10-15T11:01:31.897Z,17.30
2022-10-15T11:04:02.061Z,17.20
2022-10-15T11:06:57.565Z,17.30
2022-10-15T11:09:43.691Z,17.50
2022-10-15T11:12:40.716Z,17.90
2022-10-15T11:15:25.251Z,18.00
2022-10-15T11:18:04.467Z,17.90
2022-10-15T11:20:57.818Z,17.80
2022-10-15T11:23:42.063Z,17.60
2022-10-15T11:26:26.962Z,17.40
2022-10-15T11:29:05.295Z,17.30
2022-10-15T11:31:49.101Z,17.20
2022-10-15T11:34:41.780Z,17.10
2022-10-15T11:37:25.524Z,17.20
2022-10-15T11:40:07.706Z,17.20
2022-10-15T11:42:41.067Z,17.10
2022-10-15T11:45:33.226Z,17.10
2022-10-15T11:48:06.131Z,17.00
2022-10-15T11:50:39.039Z,17.00
2022-10-15T11:53:31.370Z,16.90
2022-10-15T11:56:06.099Z,16.90
2022-10-15T11:58:38.251Z,17.10
2022-10-15T12:01:14.403Z,17.30
2022-10-15T12:03:51.328Z,17.50
2022-10-15T12:06:22.877Z,17.60
2022-10-15T12:08:55.207Z,17.80
2022-10-15T12:11:34.788Z,18.10
2022-10-15T12:14:15.105Z,18.30
2022-10-15T12:16:50.092Z,18.50
2022-10-15T12:19:21.890Z,18.60
2022-10-15T12:22:08.353Z,18.50
2022-10-15T12:24:56.580Z,18.50
2022-10-15T12:27:35.839Z,18.40
2022-10-15T12:30:32.558Z,18.40
2022-10-15T12:33:01.918Z,18.40
2022-10-15T12:35:36.539Z,18.40
2022-10-15T12:38:21.449Z,18.40
2022-10-15T12:40:59.109Z,18.50
2022-10-15T12:43:29.747Z,18.50
2022-10-15T12:46:02.675Z,18.70
2022-10-15T12:48:34.822Z,18.90
2022-10-15T12:51:47.135Z,18.90
2022-10-15T12:54:44.445Z,19.00
2022-10-15T12:58:01.784Z,19.20
2022-10-15T13:00:44.131Z,19.40
2022-10-15T13:03:39.850Z,19.20
2022-10-15T13:06:28.128Z,19.10
2022-10-15T13:09:03.319Z,18.90
2022-10-15T13:11:34.616Z,18.80
2022-10-15T13:14:11.011Z,18.60
2022-10-15T13:16:45.564Z,18.40
2022-10-15T13:19:20.758Z,18.30
2022-10-15T13:21:54.576Z,18.20
2022-10-15T13:24:26.327Z,18.00
2022-10-15T13:26:57.498Z,18.00
2022-10-15T13:29:29.237Z,17.90
2022-10-15T13:32:02.331Z,17.80
2022-10-15T13:34:37.361Z,17.80
2022-10-15T13:37:06.639Z,17.70
2022-10-15T13:39:38.688Z,17.50
2022-10-15T13:42:10.619Z,17.50
2022-10-15T13:44:39.746Z,17.60
2022-10-15T13:47:27.322Z,17.60
2022-10-15T13:50:14.686Z,17.70
2022-10-15T13:52:46.383Z,17.80
2022-10-15T13:55:24.124Z,17.90
2022-10-15T13:57:57.322Z,17.90
2022-10-15T14:00:29.768Z,17.90
2022-10-15T14:03:22.520Z,17.90
2022-10-15T14:05:53.110Z,17.90
2022-10-15T14:08:25.190Z,17.80
2022-10-15T14:11:36.250Z,17.60
2022-10-15T14:14:05.233Z,17.50
2022-10-15T14:16:40.923Z,17.40
2022-10-15T14:19:17.569Z,17.40
2022-10-15T14:21:48.830Z,17.30
2022-10-15T14:24:20.922Z,17.20
2022-10-15T14:26:50.339Z,17.10
2022-10-15T14:29:24.279Z,17.20
2022-10-15T14:31:53.176Z,17.10
2022-10-15T14:34:42.649Z,17.10
2022-10-15T14:37:33.336Z,17.00
2022-10-15T14:40:14.302Z,17.00
2022-10-15T14:42:45.437Z,17.00
2022-10-15T14:45:16.219Z,16.90
2022-10-15T14:47:48.454Z,16.90
2022-10-15T14:50:20.621Z,16.80
2022-10-15T14:52:52.272Z,16.80
2022-10-15T14:55:33.552Z,16.70
2022-10-15T14:58:09.336Z,16.70
2022-10-15T15:00:44.149Z,16.60
2022-10-15T15:03:17.397Z,16.50
2022-10-15T15:05:49.854Z,16.50
2022-10-15T15:08:19.002Z,16.40
2022-10-15T15:13:22.186Z,16.30
2022-10-15T15:15:51.275Z,16.20
2022-10-15T15:18:20.474Z,16.20
2022-10-15T15:20:52.169Z,16.10
2022-10-15T15:23:24.165Z,16.10
2022-10-15T15:25:54.438Z,16.00
2022-10-15T15:28:25.464Z,16.00
2022-10-15T15:30:58.905Z,15.90
2022-10-15T15:33:28.464Z,15.90
2022-10-15T15:36:04.003Z,15.80
2022-10-15T15:38:33.651Z,15.80
2022-10-15T15:41:04.916Z,15.70
2022-10-15T15:43:33.692Z,15.70
2022-10-15T15:46:02.762Z,15.70
2022-10-15T15:48:31.808Z,15.60
2022-10-15T15:51:05.497Z,15.60
2022-10-15T15:53:35.564Z,15.60
2022-10-15T15:56:04.340Z,15.60
2022-10-15T15:58:33.213Z,15.50
2022-10-15T16:01:02.045Z,15.50
2022-10-15T16:03:30.990Z,15.50
2022-10-15T16:05:59.904Z,15.40
2022-10-15T16:08:30.335Z,15.40
2022-10-15T16:11:03.525Z,15.40
2022-10-15T16:13:32.512Z,15.30
2022-10-15T16:16:01.364Z,15.30
2022-10-15T16:18:30.116Z,15.20
2022-10-15T16:20:59.170Z,15.20
2022-10-15T16:23:27.979Z,15.20
2022-10-15T16:25:58.569Z,15.10
2022-10-15T16:28:27.393Z,15.10
2022-10-15T16:31:36.707Z,15.00
2022-10-15T16:34:05.925Z,15.00
2022-10-15T16:36:34.735Z,15.00
2022-10-15T16:39:03.744Z,15.00
2022-10-15T16:41:34.057Z,15.10
2022-10-15T16:44:02.686Z,15.10
2022-10-15T16:46:31.368Z,15.10
2022-10-15T16:49:00.472Z,15.10
2022-10-15T16:54:03.630Z,15.10
2022-10-15T16:56:34.668Z,15.10
2022-10-15T16:59:03.511Z,15.10
2022-10-15T17:01:32.387Z,15.20
2022-10-15T17:04:01.449Z,15.20
2022-10-15T17:06:32.273Z,15.20
2022-10-15T17:09:03.851Z,15.20
2022-10-15T17:11:36.197Z,15.30
2022-10-15T17:14:07.679Z,15.30
2022-10-15T17:16:39.381Z,15.30
2022-10-15T17:19:09.368Z,15.30
2022-10-15T17:21:41.325Z,15.30
2022-10-15T17:24:14.534Z,15.20
2022-10-15T17:26:46.184Z,15.20
2022-10-15T17:29:20.499Z,15.20
2022-10-15T17:31:51.053Z,15.10
2022-10-15T17:34:22.011Z,15.10
2022-10-15T17:36:52.540Z,15.00
2022-10-15T17:39:22.922Z,14.90
2022-10-15T17:41:53.915Z,14.90
2022-10-15T17:44:23.148Z,14.90
2022-10-15T17:46:53.054Z,14.80
2022-10-15T17:49:22.510Z,14.80
2022-10-15T17:51:51.878Z,14.70
2022-10-15T17:54:20.694Z,14.60
2022-10-15T17:56:49.854Z,14.70
2022-10-15T17:59:20.226Z,14.60
2022-10-15T18:02:04.208Z,14.50
2022-10-15T18:04:33.115Z,14.50
2022-10-15T18:07:02.103Z,14.40
2022-10-15T18:09:30.968Z,14.40
2022-10-15T18:12:01.627Z,14.40
2022-10-15T18:14:32.266Z,14.40
2022-10-15T18:17:01.131Z,14.40
2022-10-15T18:19:30.680Z,14.40
2022-10-15T18:21:59.850Z,14.30
2022-10-15T18:24:28.636Z,14.30
2022-10-15T18:26:57.409Z,14.30
2022-10-15T18:29:26.273Z,14.30
2022-10-15T18:31:58.153Z,14.30
2022-10-15T18:34:27.468Z,14.30
2022-10-15T18:36:56.478Z,14.30
2022-10-15T18:39:25.833Z,14.30
2022-10-15T18:41:54.678Z,14.30
2022-10-15T18:44:23.828Z,14.30
2022-10-15T18:46:53.242Z,14.30
2022-10-15T18:49:23.449Z,14.20
2022-10-15T18:51:53.294Z,14.30
2022-10-15T18:54:23.245Z,14.30
2022-10-15T18:56:52.805Z,14.30
2022-10-15T18:59:21.605Z,14.30
2022-10-15T19:01:50.991Z,14.20
2022-10-15T19:04:20.407Z,14.30
2022-10-15T19:06:52.191Z,14.30
2022-10-15T19:09:22.521Z,14.30
2022-10-15T19:11:53.997Z,14.20
2022-10-15T19:14:23.984Z,14.20
2022-10-15T19:16:53.570Z,14.10
2022-10-15T19:19:24.025Z,14.10
2022-10-15T19:21:56.047Z,14.10
2022-10-15T19:24:25.804Z,14.00
2022-10-15T19:26:54.706Z,13.90
2022-10-15T19:29:23.782Z,13.80
2022-10-15T19:31:54.158Z,13.70
2022-10-15T19:34:23.896Z,13.60
2022-10-15T19:36:54.338Z,13.60
2022-10-15T19:39:24.310Z,13.50
2022-10-15T19:41:54.228Z,13.40
2022-10-15T19:44:26.043Z,13.40
2022-10-15T19:46:55.473Z,13.30
2022-10-15T19:49:25.218Z,13.20
2022-10-15T19:51:55.919Z,13.20
2022-10-15T19:56:54.811Z,13.20
2022-10-15T19:59:23.587Z,13.20
2022-10-15T20:01:52.566Z,13.20
2022-10-15T20:04:21.238Z,13.30
2022-10-15T20:06:52.958Z,13.30
2022-10-15T20:09:23.244Z,13.20
2022-10-15T20:11:52.010Z,13.20
2022-10-15T20:14:20.748Z,13.20
2022-10-15T20:16:49.614Z,13.20
2022-10-15T20:19:18.312Z,13.20
2022-10-15T20:21:47.059Z,13.20
2022-10-15T20:24:15.746Z,13.30
2022-10-15T20:26:45.843Z,13.30
2022-10-15T20:29:17.563Z,13.30
2022-10-15T20:31:46.347Z,13.20
2022-10-15T20:34:15.096Z,13.20
2022-10-15T20:36:43.920Z,13.20
2022-10-15T20:39:12.783Z,13.10
2022-10-15T20:41:42.597Z,13.10
2022-10-15T20:44:13.673Z,13.00
2022-10-15T20:46:48.650Z,13.00
2022-10-15T20:49:20.617Z,13.00
2022-10-15T20:51:49.776Z,13.00
2022-10-15T20:54:20.533Z,13.00
2022-10-15T20:56:49.475Z,13.00
2022-10-15T20:59:19.802Z,13.00
2022-10-15T21:01:48.682Z,13.00
2022-10-15T21:04:17.712Z,13.00
2022-10-15T21:06:46.440Z,13.00
2022-10-15T21:09:15.241Z,12.90
2022-10-15T21:11:44.552Z,12.80
2022-10-15T21:14:14.723Z,12.80
2022-10-15T21:16:45.103Z,12.80
2022-10-15T21:19:14.199Z,12.70
2022-10-15T21:21:43.515Z,12.90
2022-10-15T21:24:13.142Z,12.70
2022-10-15T21:26:42.349Z,12.60
2022-10-15T21:29:16.115Z,12.60
2022-10-15T21:31:47.635Z,12.60
2022-10-15T21:34:17.000Z,12.60
2022-10-15T21:36:45.918Z,12.50
2022-10-15T21:39:14.828Z,12.50
2022-10-15T21:41:43.638Z,12.50
2022-10-15T21:44:12.710Z,12.40
2022-10-15T21:46:42.432Z,12.60
2022-10-15T21:49:14.245Z,12.60
2022-10-15T21:51:43.408Z,12.60
2022-10-15T21:54:12.390Z,12.60
2022-10-15T21:56:41.133Z,12.60
2022-10-15T21:59:09.911Z,12.60
2022-10-15T22:01:39.160Z,12.50
2022-10-15T22:04:09.925Z,12.50
2022-10-15T22:06:41.088Z,12.50
2022-10-15T22:09:10.979Z,12.50
2022-10-15T22:11:41.309Z,12.60
2022-10-15T22:14:12.463Z,12.70
2022-10-15T22:16:42.163Z,12.80
2022-10-15T22:19:12.997Z,12.90
2022-10-15T22:21:43.169Z,12.90
2022-10-15T22:24:15.096Z,13.10
2022-10-15T22:26:46.066Z,13.10
2022-10-15T22:29:20.022Z,13.10
2022-10-15T22:31:49.426Z,13.10
2022-10-15T22:34:20.175Z,13.00
2022-10-15T22:36:52.591Z,13.10
2022-10-15T22:39:25.136Z,13.10
2022-10-15T22:41:53.783Z,13.10
2022-10-15T22:44:23.344Z,13.20
2022-10-15T22:46:52.232Z,13.20
2022-10-15T22:49:22.506Z,13.30
2022-10-15T22:51:53.364Z,13.30
2022-10-15T22:54:23.562Z,13.30
2022-10-15T22:56:52.565Z,13.40
2022-10-15T22:59:21.367Z,13.40
2022-10-15T23:01:50.061Z,13.50
2022-10-15T23:04:19.099Z,13.60
2022-10-15T23:06:47.926Z,13.60
2022-10-15T23:09:20.143Z,13.60
2022-10-15T23:11:50.656Z,13.60
2022-10-15T23:14:19.534Z,13.70
2022-10-15T23:16:49.750Z,13.70
2022-10-15T23:19:19.820Z,13.70
2022-10-15T23:21:50.143Z,13.70
2022-10-15T23:24:24.084Z,13.70
2022-10-15T23:26:53.258Z,13.80
2022-10-15T23:29:23.887Z,13.80
2022-10-15T23:31:52.822Z,13.80
2022-10-15T23:34:22.913Z,13.80
2022-10-15T23:36:52.100Z,13.80
2022-10-15T23:39:25.026Z,13.70
2022-10-15T23:41:54.010Z,13.80
2022-10-15T23:44:25.801Z,13.70
2022-10-15T23:46:54.745Z,13.70
2022-10-15T23:49:23.438Z,13.70
2022-10-15T23:51:52.287Z,13.60
2022-10-15T23:54:22.474Z,13.70
2022-10-15T23:56:51.237Z,13.70
2022-10-15T23:59:21.427Z,13.70
